Amherst, Virginia
Current Conditions -  °F | °C
As of 2:54 AM on Sunday 21 Dec 2014 (Local Time) from KLYH Reporting Station
Overcast Overcast  
Wind Chill: 34°   Ceiling: 6000
Heat Index: 34°   Visibility: 10mi
Dew Point: 28°   Wind: 0mph
Humidity: 79%   Direction: NA
Pressure: 30.27"   Gusts: NA
Location:  37.59°N, 79.05°W
Report Text: KLYH 210754Z AUTO 00000KT 10SM OVC060 01/M02 A3027 RMK AO2 SLP256 T00111022
Loading
Personal Weather Stations






























Interactive Weather Map New forecast layout! Learn more

10-Day Weather Forecast

Advertisements
Track Severe Weather on mobile